sensor_id;sensor_type;location;lat;lon;timestamp;P1;durP1;ratioP1;P2;durP2;ratioP2
42000;SDS011;27689;48.390;10.856;2023-09-18T00:02:18;6.45;;;5.85;;
42000;SDS011;27689;48.390;10.856;2023-09-18T00:05:02;6.20;;;5.25;;
42000;SDS011;27689;48.390;10.856;2023-09-18T00:07:46;6.82;;;6.13;;
42000;SDS011;27689;48.390;10.856;2023-09-18T00:10:30;6.80;;;6.10;;
42000;SDS011;27689;48.390;10.856;2023-09-18T00:13:14;8.70;;;6.60;;
42000;SDS011;27689;48.390;10.856;2023-09-18T00:15:58;6.95;;;6.15;;
42000;SDS011;27689;48.390;10.856;2023-09-18T00:18:43;7.07;;;6.45;;
42000;SDS011;27689;48.390;10.856;2023-09-18T00:21:28;5.85;;;5.35;;
42000;SDS011;27689;48.390;10.856;2023-09-18T00:24:14;7.00;;;6.15;;
42000;SDS011;27689;48.390;10.856;2023-09-18T00:26:58;6.10;;;5.50;;
42000;SDS011;27689;48.390;10.856;2023-09-18T00:37:07;6.57;;;5.88;;
42000;SDS011;27689;48.390;10.856;2023-09-18T00:39:54;6.53;;;5.82;;
42000;SDS011;27689;48.390;10.856;2023-09-18T00:42:44;6.50;;;5.90;;
42000;SDS011;27689;48.390;10.856;2023-09-18T00:45:44;6.18;;;5.57;;
42000;SDS011;27689;48.390;10.856;2023-09-18T00:48:56;8.35;;;6.00;;
42000;SDS011;27689;48.390;10.856;2023-09-18T00:51:53;6.20;;;5.60;;
42000;SDS011;27689;48.390;10.856;2023-09-18T00:57:22;5.97;;;5.38;;
42000;SDS011;27689;48.390;10.856;2023-09-18T01:00:09;6.65;;;5.65;;
42000;SDS011;27689;48.390;10.856;2023-09-18T01:02:54;6.15;;;5.30;;
42000;SDS011;27689;48.390;10.856;2023-09-18T01:05:37;5.90;;;5.28;;
42000;SDS011;27689;48.390;10.856;2023-09-18T01:11:07;6.22;;;5.63;;
42000;SDS011;27689;48.390;10.856;2023-09-18T01:14:11;8.15;;;7.35;;
42000;SDS011;27689;48.390;10.856;2023-09-18T01:17:03;6.72;;;6.13;;
42000;SDS011;27689;48.390;10.856;2023-09-18T01:19:49;6.88;;;6.18;;
42000;SDS011;27689;48.390;10.856;2023-09-18T01:22:33;6.63;;;5.93;;
42000;SDS011;27689;48.390;10.856;2023-09-18T01:25:17;8.82;;;6.65;;
42000;SDS011;27689;48.390;10.856;2023-09-18T01:28:01;6.50;;;5.85;;
42000;SDS011;27689;48.390;10.856;2023-09-18T01:30:45;7.85;;;6.90;;
42000;SDS011;27689;48.390;10.856;2023-09-18T01:33:29;6.78;;;6.07;;
42000;SDS011;27689;48.390;10.856;2023-09-18T01:36:15;6.90;;;6.20;;
42000;SDS011;27689;48.390;10.856;2023-09-18T01:39:01;6.85;;;6.15;;
42000;SDS011;27689;48.390;10.856;2023-09-18T01:41:45;6.50;;;5.90;;
42000;SDS011;27689;48.390;10.856;2023-09-18T01:44:29;6.63;;;6.03;;
42000;SDS011;27689;48.390;10.856;2023-09-18T01:47:17;8.07;;;6.40;;
42000;SDS011;27689;48.390;10.856;2023-09-18T01:50:03;6.93;;;6.25;;
42000;SDS011;27689;48.390;10.856;2023-09-18T01:52:51;8.27;;;7.47;;
42000;SDS011;27689;48.390;10.856;2023-09-18T01:55:35;7.03;;;6.32;;
42000;SDS011;27689;48.390;10.856;2023-09-18T01:58:19;8.47;;;6.77;;
42000;SDS011;27689;48.390;10.856;2023-09-18T02:01:03;6.65;;;5.63;;
42000;SDS011;27689;48.390;10.856;2023-09-18T02:03:48;10.10;;;6.90;;
42000;SDS011;27689;48.390;10.856;2023-09-18T02:06:32;8.27;;;7.47;;
42000;SDS011;27689;48.390;10.856;2023-09-18T02:09:16;7.30;;;6.60;;
42000;SDS011;27689;48.390;10.856;2023-09-18T02:12:00;8.68;;;7.28;;
42000;SDS011;27689;48.390;10.856;2023-09-18T02:14:44;8.18;;;7.28;;
42000;SDS011;27689;48.390;10.856;2023-09-18T02:17:29;8.20;;;6.35;;
42000;SDS011;27689;48.390;10.856;2023-09-18T02:20:13;10.20;;;6.60;;
42000;SDS011;27689;48.390;10.856;2023-09-18T02:22:57;6.85;;;6.18;;
42000;SDS011;27689;48.390;10.856;2023-09-18T02:25:41;8.07;;;7.13;;
42000;SDS011;27689;48.390;10.856;2023-09-18T02:28:25;6.75;;;6.07;;
42000;SDS011;27689;48.390;10.856;2023-09-18T02:31:09;6.97;;;6.28;;
42000;SDS011;27689;48.390;10.856;2023-09-18T02:33:53;7.40;;;6.70;;
42000;SDS011;27689;48.390;10.856;2023-09-18T02:36:37;8.00;;;7.18;;
42000;SDS011;27689;48.390;10.856;2023-09-18T02:39:21;7.68;;;6.93;;
42000;SDS011;27689;48.390;10.856;2023-09-18T02:42:05;9.60;;;7.40;;
42000;SDS011;27689;48.390;10.856;2023-09-18T02:44:49;7.68;;;6.85;;
42000;SDS011;27689;48.390;10.856;2023-09-18T02:47:33;7.30;;;6.60;;
42000;SDS011;27689;48.390;10.856;2023-09-18T02:50:17;7.45;;;6.70;;
42000;SDS011;27689;48.390;10.856;2023-09-18T02:53:01;7.87;;;6.87;;
42000;SDS011;27689;48.390;10.856;2023-09-18T02:55:47;8.70;;;6.47;;
42000;SDS011;27689;48.390;10.856;2023-09-18T02:58:32;8.50;;;6.82;;
42000;SDS011;27689;48.390;10.856;2023-09-18T03:01:16;9.43;;;8.43;;
42000;SDS011;27689;48.390;10.856;2023-09-18T03:04:00;8.68;;;7.70;;
42000;SDS011;27689;48.390;10.856;2023-09-18T03:06:44;7.75;;;6.68;;
42000;SDS011;27689;48.390;10.856;2023-09-18T03:09:29;7.63;;;6.60;;
42000;SDS011;27689;48.390;10.856;2023-09-18T03:12:13;8.80;;;7.90;;
42000;SDS011;27689;48.390;10.856;2023-09-18T03:14:57;9.20;;;7.50;;
42000;SDS011;27689;48.390;10.856;2023-09-18T03:17:41;7.45;;;6.63;;
42000;SDS011;27689;48.390;10.856;2023-09-18T03:20:25;8.27;;;7.45;;
42000;SDS011;27689;48.390;10.856;2023-09-18T03:23:10;7.85;;;6.50;;
42000;SDS011;27689;48.390;10.856;2023-09-18T03:25:54;8.23;;;7.43;;
42000;SDS011;27689;48.390;10.856;2023-09-18T03:28:38;7.25;;;6.55;;
42000;SDS011;27689;48.390;10.856;2023-09-18T03:31:22;7.60;;;6.80;;
42000;SDS011;27689;48.390;10.856;2023-09-18T03:34:06;8.48;;;7.40;;
42000;SDS011;27689;48.390;10.856;2023-09-18T03:36:50;7.80;;;7.00;;
42000;SDS011;27689;48.390;10.856;2023-09-18T03:39:34;7.63;;;6.53;;
42000;SDS011;27689;48.390;10.856;2023-09-18T03:42:18;8.15;;;7.18;;
42000;SDS011;27689;48.390;10.856;2023-09-18T03:45:02;7.63;;;6.80;;
42000;SDS011;27689;48.390;10.856;2023-09-18T03:47:46;7.18;;;6.47;;
42000;SDS011;27689;48.390;10.856;2023-09-18T03:50:31;7.50;;;6.80;;
42000;SDS011;27689;48.390;10.856;2023-09-18T03:53:15;9.98;;;8.50;;
42000;SDS011;27689;48.390;10.856;2023-09-18T03:55:59;9.53;;;7.37;;
42000;SDS011;27689;48.390;10.856;2023-09-18T03:58:44;7.50;;;6.80;;
42000;SDS011;27689;48.390;10.856;2023-09-18T04:01:32;7.63;;;6.85;;
42000;SDS011;27689;48.390;10.856;2023-09-18T04:04:16;7.50;;;6.65;;
42000;SDS011;27689;48.390;10.856;2023-09-18T04:07:00;12.73;;;8.05;;
42000;SDS011;27689;48.390;10.856;2023-09-18T04:09:49;10.50;;;8.48;;
42000;SDS011;27689;48.390;10.856;2023-09-18T04:12:33;10.37;;;8.33;;
42000;SDS011;27689;48.390;10.856;2023-09-18T04:15:18;8.10;;;7.28;;
42000;SDS011;27689;48.390;10.856;2023-09-18T04:18:03;10.20;;;8.50;;
42000;SDS011;27689;48.390;10.856;2023-09-18T04:20:48;9.35;;;8.35;;
42000;SDS011;27689;48.390;10.856;2023-09-18T04:23:35;8.40;;;7.60;;
42000;SDS011;27689;48.390;10.856;2023-09-18T04:29:04;10.70;;;9.65;;
42000;SDS011;27689;48.390;10.856;2023-09-18T04:31:48;9.97;;;8.80;;
42000;SDS011;27689;48.390;10.856;2023-09-18T04:34:32;10.52;;;9.02;;
42000;SDS011;27689;48.390;10.856;2023-09-18T04:37:16;12.65;;;9.88;;
42000;SDS011;27689;48.390;10.856;2023-09-18T04:40:00;9.38;;;8.27;;
42000;SDS011;27689;48.390;10.856;2023-09-18T04:42:44;11.95;;;10.00;;
42000;SDS011;27689;48.390;10.856;2023-09-18T04:45:28;12.85;;;10.40;;
42000;SDS011;27689;48.390;10.856;2023-09-18T04:48:12;11.55;;;9.40;;
42000;SDS011;27689;48.390;10.856;2023-09-18T04:50:56;9.88;;;8.77;;
42000;SDS011;27689;48.390;10.856;2023-09-18T04:56:25;9.68;;;8.43;;
42000;SDS011;27689;48.390;10.856;2023-09-18T05:02:07;10.65;;;7.50;;
42000;SDS011;27689;48.390;10.856;2023-09-18T05:04:51;9.32;;;7.90;;
42000;SDS011;27689;48.390;10.856;2023-09-18T05:07:35;9.77;;;8.02;;
42000;SDS011;27689;48.390;10.856;2023-09-18T05:10:20;11.35;;;8.45;;
42000;SDS011;27689;48.390;10.856;2023-09-18T05:13:04;11.57;;;7.20;;
42000;SDS011;27689;48.390;10.856;2023-09-18T05:15:48;7.30;;;6.55;;
42000;SDS011;27689;48.390;10.856;2023-09-18T05:18:33;7.85;;;6.63;;
42000;SDS011;27689;48.390;10.856;2023-09-18T05:21:17;8.60;;;6.40;;
42000;SDS011;27689;48.390;10.856;2023-09-18T05:24:06;8.77;;;5.90;;
42000;SDS011;27689;48.390;10.856;2023-09-18T05:26:50;7.18;;;5.68;;
42000;SDS011;27689;48.390;10.856;2023-09-18T05:29:34;8.33;;;6.27;;
42000;SDS011;27689;48.390;10.856;2023-09-18T05:32:21;8.70;;;6.28;;
42000;SDS011;27689;48.390;10.856;2023-09-18T05:35:05;7.60;;;6.10;;
42000;SDS011;27689;48.390;10.856;2023-09-18T05:40:40;9.70;;;6.70;;
42000;SDS011;27689;48.390;10.856;2023-09-18T05:43:24;7.93;;;6.60;;
42000;SDS011;27689;48.390;10.856;2023-09-18T05:46:09;9.17;;;6.87;;
42000;SDS011;27689;48.390;10.856;2023-09-18T05:48:52;9.10;;;7.25;;
42000;SDS011;27689;48.390;10.856;2023-09-18T05:51:40;11.68;;;7.55;;
42000;SDS011;27689;48.390;10.856;2023-09-18T05:54:24;11.27;;;7.32;;
42000;SDS011;27689;48.390;10.856;2023-09-18T05:57:08;11.45;;;7.55;;
42000;SDS011;27689;48.390;10.856;2023-09-18T05:59:52;10.80;;;7.00;;
42000;SDS011;27689;48.390;10.856;2023-09-18T06:02:36;9.38;;;6.82;;
42000;SDS011;27689;48.390;10.856;2023-09-18T06:05:20;8.00;;;6.82;;
42000;SDS011;27689;48.390;10.856;2023-09-18T06:08:05;8.07;;;7.18;;
42000;SDS011;27689;48.390;10.856;2023-09-18T06:10:49;10.27;;;7.35;;
42000;SDS011;27689;48.390;10.856;2023-09-18T06:13:33;7.18;;;6.47;;
42000;SDS011;27689;48.390;10.856;2023-09-18T06:16:17;12.13;;;7.10;;
42000;SDS011;27689;48.390;10.856;2023-09-18T06:19:02;10.82;;;8.05;;
42000;SDS011;27689;48.390;10.856;2023-09-18T06:21:45;14.00;;;7.32;;
42000;SDS011;27689;48.390;10.856;2023-09-18T06:24:29;11.18;;;6.95;;
42000;SDS011;27689;48.390;10.856;2023-09-18T06:27:13;8.32;;;7.28;;
42000;SDS011;27689;48.390;10.856;2023-09-18T06:29:57;11.63;;;7.20;;
42000;SDS011;27689;48.390;10.856;2023-09-18T06:32:42;9.35;;;7.65;;
42000;SDS011;27689;48.390;10.856;2023-09-18T06:35:26;8.88;;;7.90;;
42000;SDS011;27689;48.390;10.856;2023-09-18T06:38:10;8.27;;;7.43;;
42000;SDS011;27689;48.390;10.856;2023-09-18T06:40:56;12.23;;;9.27;;
42000;SDS011;27689;48.390;10.856;2023-09-18T06:43:40;10.25;;;7.70;;
42000;SDS011;27689;48.390;10.856;2023-09-18T06:46:24;8.63;;;7.70;;
42000;SDS011;27689;48.390;10.856;2023-09-18T06:49:08;12.13;;;7.85;;
42000;SDS011;27689;48.390;10.856;2023-09-18T06:51:53;15.07;;;9.15;;
42000;SDS011;27689;48.390;10.856;2023-09-18T06:54:37;10.53;;;8.70;;
42000;SDS011;27689;48.390;10.856;2023-09-18T06:57:21;10.87;;;8.87;;
42000;SDS011;27689;48.390;10.856;2023-09-18T07:00:05;10.10;;;9.10;;
42000;SDS011;27689;48.390;10.856;2023-09-18T07:02:49;8.07;;;7.25;;
42000;SDS011;27689;48.390;10.856;2023-09-18T07:05:33;8.85;;;8.00;;
42000;SDS011;27689;48.390;10.856;2023-09-18T07:08:17;9.57;;;7.83;;
42000;SDS011;27689;48.390;10.856;2023-09-18T07:11:06;9.02;;;7.40;;
42000;SDS011;27689;48.390;10.856;2023-09-18T07:13:50;9.98;;;7.10;;
42000;SDS011;27689;48.390;10.856;2023-09-18T07:16:34;9.48;;;8.23;;
42000;SDS011;27689;48.390;10.856;2023-09-18T07:19:18;9.68;;;8.68;;
42000;SDS011;27689;48.390;10.856;2023-09-18T07:22:02;8.63;;;7.73;;
42000;SDS011;27689;48.390;10.856;2023-09-18T07:24:46;8.65;;;7.82;;
42000;SDS011;27689;48.390;10.856;2023-09-18T07:27:30;9.95;;;7.82;;
42000;SDS011;27689;48.390;10.856;2023-09-18T07:30:14;10.95;;;7.90;;
42000;SDS011;27689;48.390;10.856;2023-09-18T07:33:03;7.97;;;7.18;;
42000;SDS011;27689;48.390;10.856;2023-09-18T07:35:47;8.07;;;7.25;;
42000;SDS011;27689;48.390;10.856;2023-09-18T07:38:32;8.65;;;7.75;;
42000;SDS011;27689;48.390;10.856;2023-09-18T07:41:17;8.32;;;7.38;;
42000;SDS011;27689;48.390;10.856;2023-09-18T07:44:03;8.93;;;7.45;;
42000;SDS011;27689;48.390;10.856;2023-09-18T07:46:47;10.27;;;7.63;;
42000;SDS011;27689;48.390;10.856;2023-09-18T07:49:31;9.13;;;7.05;;
42000;SDS011;27689;48.390;10.856;2023-09-18T07:52:16;8.03;;;7.10;;
42000;SDS011;27689;48.390;10.856;2023-09-18T07:57:44;7.25;;;6.55;;
42000;SDS011;27689;48.390;10.856;2023-09-18T08:00:29;6.85;;;6.15;;
42000;SDS011;27689;48.390;10.856;2023-09-18T08:03:13;8.20;;;6.45;;
42000;SDS011;27689;48.390;10.856;2023-09-18T08:05:57;8.32;;;6.80;;
42000;SDS011;27689;48.390;10.856;2023-09-18T08:08:41;9.35;;;6.85;;
42000;SDS011;27689;48.390;10.856;2023-09-18T08:11:25;8.05;;;6.15;;
42000;SDS011;27689;48.390;10.856;2023-09-18T08:14:09;11.63;;;6.60;;
42000;SDS011;27689;48.390;10.856;2023-09-18T08:16:56;11.13;;;7.43;;
42000;SDS011;27689;48.390;10.856;2023-09-18T08:19:43;10.95;;;6.65;;
42000;SDS011;27689;48.390;10.856;2023-09-18T08:22:28;7.43;;;5.47;;
42000;SDS011;27689;48.390;10.856;2023-09-18T08:25:12;8.40;;;6.22;;
42000;SDS011;27689;48.390;10.856;2023-09-18T08:27:55;8.00;;;5.82;;
42000;SDS011;27689;48.390;10.856;2023-09-18T08:30:39;6.90;;;5.00;;
42000;SDS011;27689;48.390;10.856;2023-09-18T08:33:24;7.53;;;6.05;;
42000;SDS011;27689;48.390;10.856;2023-09-18T08:36:08;7.63;;;5.47;;
42000;SDS011;27689;48.390;10.856;2023-09-18T08:38:52;8.70;;;5.90;;
42000;SDS011;27689;48.390;10.856;2023-09-18T08:41:38;8.05;;;5.40;;
42000;SDS011;27689;48.390;10.856;2023-09-18T08:44:26;10.13;;;5.20;;
42000;SDS011;27689;48.390;10.856;2023-09-18T08:47:11;7.78;;;5.65;;
42000;SDS011;27689;48.390;10.856;2023-09-18T08:49:57;8.52;;;5.35;;
42000;SDS011;27689;48.390;10.856;2023-09-18T08:55:26;9.65;;;5.82;;
42000;SDS011;27689;48.390;10.856;2023-09-18T08:58:11;10.50;;;5.82;;
42000;SDS011;27689;48.390;10.856;2023-09-18T09:00:56;12.82;;;5.53;;
42000;SDS011;27689;48.390;10.856;2023-09-18T09:03:41;10.35;;;5.30;;
42000;SDS011;27689;48.390;10.856;2023-09-18T09:06:26;10.23;;;5.20;;
42000;SDS011;27689;48.390;10.856;2023-09-18T09:09:10;7.72;;;5.75;;
42000;SDS011;27689;48.390;10.856;2023-09-18T09:11:57;7.50;;;4.88;;
42000;SDS011;27689;48.390;10.856;2023-09-18T09:14:40;7.63;;;4.70;;
42000;SDS011;27689;48.390;10.856;2023-09-18T09:17:29;8.18;;;4.45;;
42000;SDS011;27689;48.390;10.856;2023-09-18T09:20:14;8.52;;;4.20;;
42000;SDS011;27689;48.390;10.856;2023-09-18T09:25:46;6.70;;;3.60;;
42000;SDS011;27689;48.390;10.856;2023-09-18T09:28:31;7.25;;;3.25;;
42000;SDS011;27689;48.390;10.856;2023-09-18T09:31:25;11.27;;;3.47;;
42000;SDS011;27689;48.390;10.856;2023-09-18T09:34:11;9.25;;;3.30;;
42000;SDS011;27689;48.390;10.856;2023-09-18T09:36:56;8.65;;;2.90;;
42000;SDS011;27689;48.390;10.856;2023-09-18T09:39:50;10.77;;;3.42;;
42000;SDS011;27689;48.390;10.856;2023-09-18T09:42:38;8.40;;;3.15;;
42000;SDS011;27689;48.390;10.856;2023-09-18T09:45:23;8.30;;;3.10;;
42000;SDS011;27689;48.390;10.856;2023-09-18T09:48:07;11.00;;;3.10;;
42000;SDS011;27689;48.390;10.856;2023-09-18T09:50:52;6.63;;;2.75;;
42000;SDS011;27689;48.390;10.856;2023-09-18T09:53:44;8.40;;;2.83;;
42000;SDS011;27689;48.390;10.856;2023-09-18T09:56:45;10.68;;;2.67;;
42000;SDS011;27689;48.390;10.856;2023-09-18T09:59:31;15.70;;;3.30;;
42000;SDS011;27689;48.390;10.856;2023-09-18T10:02:18;9.60;;;2.33;;
42000;SDS011;27689;48.390;10.856;2023-09-18T10:05:03;10.45;;;2.83;;
42000;SDS011;27689;48.390;10.856;2023-09-18T10:07:47;11.85;;;2.75;;
42000;SDS011;27689;48.390;10.856;2023-09-18T10:10:35;11.93;;;2.80;;
42000;SDS011;27689;48.390;10.856;2023-09-18T10:13:41;10.07;;;2.50;;
42000;SDS011;27689;48.390;10.856;2023-09-18T10:16:35;17.83;;;3.28;;
42000;SDS011;27689;48.390;10.856;2023-09-18T10:19:30;8.98;;;3.13;;
42000;SDS011;27689;48.390;10.856;2023-09-18T10:22:32;7.07;;;2.50;;
42000;SDS011;27689;48.390;10.856;2023-09-18T10:25:23;7.45;;;2.78;;
42000;SDS011;27689;48.390;10.856;2023-09-18T10:28:09;13.18;;;3.45;;
42000;SDS011;27689;48.390;10.856;2023-09-18T10:30:56;11.35;;;3.03;;
42000;SDS011;27689;48.390;10.856;2023-09-18T10:33:41;8.88;;;2.78;;
42000;SDS011;27689;48.390;10.856;2023-09-18T10:36:27;11.93;;;3.25;;
42000;SDS011;27689;48.390;10.856;2023-09-18T10:41:57;17.40;;;3.03;;
42000;SDS011;27689;48.390;10.856;2023-09-18T10:44:45;13.95;;;3.17;;
42000;SDS011;27689;48.390;10.856;2023-09-18T10:47:30;11.05;;;3.50;;
42000;SDS011;27689;48.390;10.856;2023-09-18T10:50:25;11.20;;;3.55;;
42000;SDS011;27689;48.390;10.856;2023-09-18T10:55:57;8.88;;;2.92;;
42000;SDS011;27689;48.390;10.856;2023-09-18T10:58:42;11.07;;;2.95;;
42000;SDS011;27689;48.390;10.856;2023-09-18T11:04:17;7.75;;;2.10;;
42000;SDS011;27689;48.390;10.856;2023-09-18T11:07:02;9.10;;;2.42;;
42000;SDS011;27689;48.390;10.856;2023-09-18T11:09:48;7.47;;;2.20;;
42000;SDS011;27689;48.390;10.856;2023-09-18T11:12:44;8.38;;;2.10;;
42000;SDS011;27689;48.390;10.856;2023-09-18T11:15:32;7.57;;;1.95;;
42000;SDS011;27689;48.390;10.856;2023-09-18T11:18:17;6.88;;;2.47;;
42000;SDS011;27689;48.390;10.856;2023-09-18T11:21:10;8.60;;;2.42;;
42000;SDS011;27689;48.390;10.856;2023-09-18T11:24:02;9.80;;;2.78;;
42000;SDS011;27689;48.390;10.856;2023-09-18T11:26:54;5.30;;;2.08;;
42000;SDS011;27689;48.390;10.856;2023-09-18T11:29:40;6.18;;;2.53;;
42000;SDS011;27689;48.390;10.856;2023-09-18T11:32:37;12.38;;;2.30;;
42000;SDS011;27689;48.390;10.856;2023-09-18T11:35:21;8.93;;;2.35;;
42000;SDS011;27689;48.390;10.856;2023-09-18T11:38:06;9.40;;;2.78;;
42000;SDS011;27689;48.390;10.856;2023-09-18T11:40:52;6.30;;;2.00;;
42000;SDS011;27689;48.390;10.856;2023-09-18T11:43:36;7.22;;;2.22;;
42000;SDS011;27689;48.390;10.856;2023-09-18T11:46:23;7.90;;;2.60;;
42000;SDS011;27689;48.390;10.856;2023-09-18T11:49:10;4.88;;;2.17;;
42000;SDS011;27689;48.390;10.856;2023-09-18T11:51:54;5.22;;;2.33;;
42000;SDS011;27689;48.390;10.856;2023-09-18T11:54:42;6.53;;;2.17;;
42000;SDS011;27689;48.390;10.856;2023-09-18T11:57:26;4.13;;;1.77;;
42000;SDS011;27689;48.390;10.856;2023-09-18T12:00:19;6.78;;;1.83;;
42000;SDS011;27689;48.390;10.856;2023-09-18T12:03:15;5.05;;;2.10;;
42000;SDS011;27689;48.390;10.856;2023-09-18T12:06:14;8.63;;;2.50;;
42000;SDS011;27689;48.390;10.856;2023-09-18T12:09:00;6.45;;;2.15;;
42000;SDS011;27689;48.390;10.856;2023-09-18T12:11:44;4.75;;;2.08;;
42000;SDS011;27689;48.390;10.856;2023-09-18T12:14:32;3.03;;;1.70;;
42000;SDS011;27689;48.390;10.856;2023-09-18T12:17:17;4.43;;;1.88;;
42000;SDS011;27689;48.390;10.856;2023-09-18T12:20:02;8.88;;;2.03;;
42000;SDS011;27689;48.390;10.856;2023-09-18T12:23:03;5.40;;;2.00;;
42000;SDS011;27689;48.390;10.856;2023-09-18T12:25:59;6.68;;;1.85;;
42000;SDS011;27689;48.390;10.856;2023-09-18T12:28:45;8.48;;;2.40;;
42000;SDS011;27689;48.390;10.856;2023-09-18T12:31:45;5.18;;;1.85;;
42000;SDS011;27689;48.390;10.856;2023-09-18T12:34:30;5.22;;;1.70;;
42000;SDS011;27689;48.390;10.856;2023-09-18T12:37:32;7.15;;;2.50;;
42000;SDS011;27689;48.390;10.856;2023-09-18T12:40:28;6.60;;;2.30;;
42000;SDS011;27689;48.390;10.856;2023-09-18T12:43:24;3.65;;;1.63;;
42000;SDS011;27689;48.390;10.856;2023-09-18T12:46:16;8.00;;;2.20;;
42000;SDS011;27689;48.390;10.856;2023-09-18T12:49:18;8.05;;;2.03;;
42000;SDS011;27689;48.390;10.856;2023-09-18T12:52:21;7.90;;;3.00;;
42000;SDS011;27689;48.390;10.856;2023-09-18T12:55:07;6.20;;;2.35;;
42000;SDS011;27689;48.390;10.856;2023-09-18T13:00:36;5.97;;;1.80;;
42000;SDS011;27689;48.390;10.856;2023-09-18T13:03:21;6.25;;;1.88;;
42000;SDS011;27689;48.390;10.856;2023-09-18T13:06:07;3.65;;;2.00;;
42000;SDS011;27689;48.390;10.856;2023-09-18T13:08:55;6.82;;;1.88;;
42000;SDS011;27689;48.390;10.856;2023-09-18T13:11:59;4.38;;;1.67;;
42000;SDS011;27689;48.390;10.856;2023-09-18T13:15:02;3.88;;;1.88;;
42000;SDS011;27689;48.390;10.856;2023-09-18T13:17:52;4.50;;;1.73;;
42000;SDS011;27689;48.390;10.856;2023-09-18T13:20:37;6.35;;;2.17;;
42000;SDS011;27689;48.390;10.856;2023-09-18T13:23:30;4.22;;;1.55;;
42000;SDS011;27689;48.390;10.856;2023-09-18T13:26:15;3.50;;;1.50;;
42000;SDS011;27689;48.390;10.856;2023-09-18T13:28:59;4.63;;;1.73;;
42000;SDS011;27689;48.390;10.856;2023-09-18T13:31:43;4.37;;;1.60;;
42000;SDS011;27689;48.390;10.856;2023-09-18T13:34:27;5.22;;;1.73;;
42000;SDS011;27689;48.390;10.856;2023-09-18T13:37:13;3.42;;;1.70;;
42000;SDS011;27689;48.390;10.856;2023-09-18T13:40:01;3.05;;;1.55;;
42000;SDS011;27689;48.390;10.856;2023-09-18T13:42:46;4.35;;;1.73;;
42000;SDS011;27689;48.390;10.856;2023-09-18T13:45:32;2.03;;;1.40;;
42000;SDS011;27689;48.390;10.856;2023-09-18T13:48:19;2.28;;;1.10;;
42000;SDS011;27689;48.390;10.856;2023-09-18T13:51:03;5.27;;;2.17;;
42000;SDS011;27689;48.390;10.856;2023-09-18T13:53:47;3.90;;;1.73;;
42000;SDS011;27689;48.390;10.856;2023-09-18T13:59:16;3.28;;;1.70;;
42000;SDS011;27689;48.390;10.856;2023-09-18T14:02:00;7.60;;;1.55;;
42000;SDS011;27689;48.390;10.856;2023-09-18T14:04:44;4.20;;;1.75;;
42000;SDS011;27689;48.390;10.856;2023-09-18T14:07:29;3.67;;;1.63;;
42000;SDS011;27689;48.390;10.856;2023-09-18T14:10:13;3.97;;;1.42;;
42000;SDS011;27689;48.390;10.856;2023-09-18T14:12:57;5.68;;;1.77;;
42000;SDS011;27689;48.390;10.856;2023-09-18T14:15:41;3.20;;;1.95;;
42000;SDS011;27689;48.390;10.856;2023-09-18T14:18:25;4.00;;;1.60;;
42000;SDS011;27689;48.390;10.856;2023-09-18T14:21:11;2.35;;;1.45;;
42000;SDS011;27689;48.390;10.856;2023-09-18T14:23:55;3.08;;;1.60;;
42000;SDS011;27689;48.390;10.856;2023-09-18T14:26:39;2.83;;;1.20;;
42000;SDS011;27689;48.390;10.856;2023-09-18T14:29:26;5.10;;;1.55;;
42000;SDS011;27689;48.390;10.856;2023-09-18T14:32:19;4.18;;;1.20;;
42000;SDS011;27689;48.390;10.856;2023-09-18T14:38:43;1.90;;;1.35;;
42000;SDS011;27689;48.390;10.856;2023-09-18T14:41:27;1.80;;;1.40;;
42000;SDS011;27689;48.390;10.856;2023-09-18T14:44:11;2.90;;;1.30;;
42000;SDS011;27689;48.390;10.856;2023-09-18T14:46:55;2.75;;;1.45;;
42000;SDS011;27689;48.390;10.856;2023-09-18T14:49:39;4.75;;;1.50;;
42000;SDS011;27689;48.390;10.856;2023-09-18T14:52:23;2.83;;;1.58;;
42000;SDS011;27689;48.390;10.856;2023-09-18T14:55:09;2.60;;;1.23;;
42000;SDS011;27689;48.390;10.856;2023-09-18T14:57:53;2.15;;;1.30;;
42000;SDS011;27689;48.390;10.856;2023-09-18T15:00:37;2.35;;;1.35;;
42000;SDS011;27689;48.390;10.856;2023-09-18T15:03:21;3.55;;;1.58;;
42000;SDS011;27689;48.390;10.856;2023-09-18T15:06:08;3.05;;;1.55;;
42000;SDS011;27689;48.390;10.856;2023-09-18T15:08:52;2.85;;;1.63;;
42000;SDS011;27689;48.390;10.856;2023-09-18T15:11:36;2.53;;;1.60;;
42000;SDS011;27689;48.390;10.856;2023-09-18T15:14:20;3.72;;;1.38;;
42000;SDS011;27689;48.390;10.856;2023-09-18T15:17:04;4.78;;;1.48;;
42000;SDS011;27689;48.390;10.856;2023-09-18T15:19:48;2.42;;;1.40;;
42000;SDS011;27689;48.390;10.856;2023-09-18T15:22:38;2.83;;;1.55;;
42000;SDS011;27689;48.390;10.856;2023-09-18T15:25:22;2.00;;;1.65;;
42000;SDS011;27689;48.390;10.856;2023-09-18T15:28:06;2.78;;;1.67;;
42000;SDS011;27689;48.390;10.856;2023-09-18T15:30:51;4.40;;;1.75;;
42000;SDS011;27689;48.390;10.856;2023-09-18T15:33:36;4.57;;;1.60;;
42000;SDS011;27689;48.390;10.856;2023-09-18T15:39:06;1.90;;;1.30;;
42000;SDS011;27689;48.390;10.856;2023-09-18T15:41:50;3.15;;;1.33;;
42000;SDS011;27689;48.390;10.856;2023-09-18T15:44:34;2.55;;;1.52;;
42000;SDS011;27689;48.390;10.856;2023-09-18T15:50:04;3.92;;;1.65;;
42000;SDS011;27689;48.390;10.856;2023-09-18T15:52:53;4.95;;;1.40;;
42000;SDS011;27689;48.390;10.856;2023-09-18T15:55:37;4.80;;;2.00;;
42000;SDS011;27689;48.390;10.856;2023-09-18T15:58:21;3.17;;;1.50;;
42000;SDS011;27689;48.390;10.856;2023-09-18T16:01:07;3.40;;;1.60;;
42000;SDS011;27689;48.390;10.856;2023-09-18T16:03:52;3.40;;;1.60;;
42000;SDS011;27689;48.390;10.856;2023-09-18T16:06:36;4.22;;;1.30;;
42000;SDS011;27689;48.390;10.856;2023-09-18T16:09:20;2.25;;;1.42;;
42000;SDS011;27689;48.390;10.856;2023-09-18T16:12:04;1.45;;;1.13;;
42000;SDS011;27689;48.390;10.856;2023-09-18T16:14:49;1.73;;;0.88;;
42000;SDS011;27689;48.390;10.856;2023-09-18T16:17:33;2.00;;;1.25;;
42000;SDS011;27689;48.390;10.856;2023-09-18T16:20:17;2.70;;;0.93;;
42000;SDS011;27689;48.390;10.856;2023-09-18T16:23:01;3.38;;;1.25;;
42000;SDS011;27689;48.390;10.856;2023-09-18T16:25:45;1.58;;;1.10;;
42000;SDS011;27689;48.390;10.856;2023-09-18T16:28:29;2.35;;;1.05;;
42000;SDS011;27689;48.390;10.856;2023-09-18T16:31:13;1.63;;;1.00;;
42000;SDS011;27689;48.390;10.856;2023-09-18T16:33:57;3.45;;;1.30;;
42000;SDS011;27689;48.390;10.856;2023-09-18T16:36:41;3.92;;;1.02;;
42000;SDS011;27689;48.390;10.856;2023-09-18T16:39:25;4.93;;;1.35;;
42000;SDS011;27689;48.390;10.856;2023-09-18T16:42:09;2.03;;;1.25;;
42000;SDS011;27689;48.390;10.856;2023-09-18T16:44:53;3.40;;;1.30;;
42000;SDS011;27689;48.390;10.856;2023-09-18T16:47:37;2.30;;;1.27;;
42000;SDS011;27689;48.390;10.856;2023-09-18T16:50:21;1.73;;;0.90;;
42000;SDS011;27689;48.390;10.856;2023-09-18T16:53:07;5.07;;;1.27;;
42000;SDS011;27689;48.390;10.856;2023-09-18T16:55:50;1.45;;;1.00;;
42000;SDS011;27689;48.390;10.856;2023-09-18T16:58:35;1.70;;;1.00;;
42000;SDS011;27689;48.390;10.856;2023-09-18T17:05:14;2.45;;;0.88;;
42000;SDS011;27689;48.390;10.856;2023-09-18T17:07:58;1.88;;;1.23;;
42000;SDS011;27689;48.390;10.856;2023-09-18T17:10:42;3.05;;;1.10;;
42000;SDS011;27689;48.390;10.856;2023-09-18T17:13:26;3.42;;;1.10;;
42000;SDS011;27689;48.390;10.856;2023-09-18T17:16:10;2.42;;;1.40;;
42000;SDS011;27689;48.390;10.856;2023-09-18T17:18:55;3.47;;;1.40;;
42000;SDS011;27689;48.390;10.856;2023-09-18T17:21:39;2.47;;;1.23;;
42000;SDS011;27689;48.390;10.856;2023-09-18T17:24:23;2.97;;;1.30;;